Beauceville, Canada
Current Conditions -  °F | °C
As of 4:00 AM on Monday 24 Nov 2014 (Local Time) from CYQB Reporting Station
Haze Haze  
Wind Chill: 30°   Ceiling: 200
Heat Index: 36°   Visibility: 1.2mi
Dew Point: 36°   Wind: 7mph
Humidity: 100%   Direction: 70°ENE
Pressure: 29.87"   Gusts: NA
Location:  46.21°N, 70.77°W
Report Text: CYQB 240900Z 07006KT 1 1/4SM BR BKN002 OVC045 02/02 A2987 RMK SF5SC3 PRESFR SLP118
Loading
Personal Weather Stations






























Interactive Weather Map New forecast layout! Learn more

10-Day Weather Forecast

Advertisements
Track Severe Weather on mobile